sensor_id;sensor_type;location;lat;lon;timestamp;pressure;altitude;pressure_sealevel;temperature;humidity
49949;BME280;35840;45.982;8.890;2023-02-04T00:00:11;98805.41;;;5.59;51.49
49949;BME280;35840;45.982;8.890;2023-02-04T00:02:39;98792.72;;;5.57;52.91
49949;BME280;35840;45.982;8.890;2023-02-04T00:05:07;98785.81;;;5.59;51.16
49949;BME280;35840;45.982;8.890;2023-02-04T00:07:34;98797.06;;;5.54;51.99
49949;BME280;35840;45.982;8.890;2023-02-04T00:10:03;98787.06;;;5.47;52.24
49949;BME280;35840;45.982;8.890;2023-02-04T00:12:30;98778.44;;;5.51;51.85
49949;BME280;35840;45.982;8.890;2023-02-04T00:14:57;98775.03;;;5.51;50.70
49949;BME280;35840;45.982;8.890;2023-02-04T00:17:24;98783.44;;;5.55;51.67
49949;BME280;35840;45.982;8.890;2023-02-04T00:19:51;98781.47;;;5.63;51.51
49949;BME280;35840;45.982;8.890;2023-02-04T00:22:17;98786.47;;;5.66;51.62
49949;BME280;35840;45.982;8.890;2023-02-04T00:24:45;98771.81;;;5.71;50.61
49949;BME280;35840;45.982;8.890;2023-02-04T00:27:15;98777.59;;;5.76;50.01
49949;BME280;35840;45.982;8.890;2023-02-04T00:29:42;98760.84;;;5.69;50.72
49949;BME280;35840;45.982;8.890;2023-02-04T00:32:09;98754.47;;;5.81;50.33
49949;BME280;35840;45.982;8.890;2023-02-04T00:34:35;98778.94;;;5.86;50.32
49949;BME280;35840;45.982;8.890;2023-02-04T00:37:02;98773.91;;;5.85;50.25
49949;BME280;35840;45.982;8.890;2023-02-04T00:39:29;98775.56;;;5.86;50.57
49949;BME280;35840;45.982;8.890;2023-02-04T00:41:55;98762.66;;;5.91;50.29
49949;BME280;35840;45.982;8.890;2023-02-04T00:44:22;98769.69;;;5.84;50.84
49949;BME280;35840;45.982;8.890;2023-02-04T00:46:49;98771.56;;;5.79;51.39
49949;BME280;35840;45.982;8.890;2023-02-04T00:49:16;98760.84;;;5.69;51.78
49949;BME280;35840;45.982;8.890;2023-02-04T00:51:42;98753.78;;;5.77;52.10
49949;BME280;35840;45.982;8.890;2023-02-04T00:54:12;98769.53;;;5.89;51.47
49949;BME280;35840;45.982;8.890;2023-02-04T00:56:42;98759.28;;;5.90;50.67
49949;BME280;35840;45.982;8.890;2023-02-04T00:59:09;98763.50;;;5.91;50.91
49949;BME280;35840;45.982;8.890;2023-02-04T01:01:36;98763.59;;;5.88;51.46
49949;BME280;35840;45.982;8.890;2023-02-04T01:04:04;98754.28;;;5.87;51.78
49949;BME280;35840;45.982;8.890;2023-02-04T01:06:31;98745.72;;;5.88;51.58
49949;BME280;35840;45.982;8.890;2023-02-04T01:08:58;98722.09;;;5.83;52.22
49949;BME280;35840;45.982;8.890;2023-02-04T01:11:24;98708.84;;;5.73;51.94
49949;BME280;35840;45.982;8.890;2023-02-04T01:13:51;98749.78;;;5.94;52.72
49949;BME280;35840;45.982;8.890;2023-02-04T01:16:18;98743.09;;;5.91;52.52
49949;BME280;35840;45.982;8.890;2023-02-04T01:18:45;98740.16;;;6.02;52.72
49949;BME280;35840;45.982;8.890;2023-02-04T01:21:12;98741.66;;;6.08;52.64
49949;BME280;35840;45.982;8.890;2023-02-04T01:23:38;98739.06;;;6.09;53.67
49949;BME280;35840;45.982;8.890;2023-02-04T01:26:06;98733.84;;;6.12;53.80
49949;BME280;35840;45.982;8.890;2023-02-04T01:28:33;98740.63;;;6.13;53.77
49949;BME280;35840;45.982;8.890;2023-02-04T01:31:00;98721.31;;;6.06;54.48
49949;BME280;35840;45.982;8.890;2023-02-04T01:33:27;98723.75;;;6.09;54.56
49949;BME280;35840;45.982;8.890;2023-02-04T01:35:54;98730.53;;;6.10;54.22
49949;BME280;35840;45.982;8.890;2023-02-04T01:38:20;98722.97;;;6.07;55.05
49949;BME280;35840;45.982;8.890;2023-02-04T01:40:47;98737.72;;;5.99;55.13
49949;BME280;35840;45.982;8.890;2023-02-04T01:43:14;98713.53;;;5.85;55.52
49949;BME280;35840;45.982;8.890;2023-02-04T01:45:44;98718.50;;;5.89;55.86
49949;BME280;35840;45.982;8.890;2023-02-04T01:48:12;98720.59;;;5.77;56.16
49949;BME280;35840;45.982;8.890;2023-02-04T01:50:50;98720.13;;;5.91;55.40
49949;BME280;35840;45.982;8.890;2023-02-04T01:53:21;98731.81;;;5.98;54.88
49949;BME280;35840;45.982;8.890;2023-02-04T01:55:49;98724.75;;;6.05;55.25
49949;BME280;35840;45.982;8.890;2023-02-04T01:58:16;98722.81;;;6.12;54.82
49949;BME280;35840;45.982;8.890;2023-02-04T02:00:43;98715.59;;;6.23;54.89
49949;BME280;35840;45.982;8.890;2023-02-04T02:03:10;98713.22;;;6.41;53.51
49949;BME280;35840;45.982;8.890;2023-02-04T02:05:43;98718.94;;;6.47;53.42
49949;BME280;35840;45.982;8.890;2023-02-04T02:08:11;98720.06;;;6.40;54.68
49949;BME280;35840;45.982;8.890;2023-02-04T02:10:40;98728.59;;;6.39;54.67
49949;BME280;35840;45.982;8.890;2023-02-04T02:13:10;98720.44;;;6.29;54.98
49949;BME280;35840;45.982;8.890;2023-02-04T02:15:38;98719.88;;;6.23;54.57
49949;BME280;35840;45.982;8.890;2023-02-04T02:18:06;98713.59;;;6.31;54.71
49949;BME280;35840;45.982;8.890;2023-02-04T02:20:33;98713.19;;;6.42;54.32
49949;BME280;35840;45.982;8.890;2023-02-04T02:25:30;98705.09;;;6.53;54.36
49949;BME280;35840;45.982;8.890;2023-02-04T02:27:58;98698.22;;;6.55;54.65
49949;BME280;35840;45.982;8.890;2023-02-04T02:30:27;98697.88;;;6.42;55.84
49949;BME280;35840;45.982;8.890;2023-02-04T02:32:55;98683.88;;;6.29;56.06
49949;BME280;35840;45.982;8.890;2023-02-04T02:35:22;98685.09;;;6.42;55.14
49949;BME280;35840;45.982;8.890;2023-02-04T02:37:49;98685.88;;;6.44;54.83
49949;BME280;35840;45.982;8.890;2023-02-04T02:40:16;98695.91;;;6.49;55.56
49949;BME280;35840;45.982;8.890;2023-02-04T02:42:44;98687.81;;;6.37;54.64
49949;BME280;35840;45.982;8.890;2023-02-04T02:45:26;98675.91;;;6.38;54.61
49949;BME280;35840;45.982;8.890;2023-02-04T02:47:54;98690.72;;;6.50;54.96
49949;BME280;35840;45.982;8.890;2023-02-04T02:50:25;98669.88;;;6.61;54.50
49949;BME280;35840;45.982;8.890;2023-02-04T02:52:53;98670.84;;;7.01;52.43
49949;BME280;35840;45.982;8.890;2023-02-04T02:55:22;98664.03;;;7.62;51.73
49949;BME280;35840;45.982;8.890;2023-02-04T02:57:51;98663.06;;;7.65;51.33
49949;BME280;35840;45.982;8.890;2023-02-04T03:00:26;98659.56;;;7.67;51.68
49949;BME280;35840;45.982;8.890;2023-02-04T03:05:32;98679.22;;;7.26;53.55
49949;BME280;35840;45.982;8.890;2023-02-04T03:08:01;98671.41;;;7.08;53.92
49949;BME280;35840;45.982;8.890;2023-02-04T03:10:29;98663.22;;;7.00;53.94
49949;BME280;35840;45.982;8.890;2023-02-04T03:12:57;98671.28;;;6.91;54.73
49949;BME280;35840;45.982;8.890;2023-02-04T03:15:25;98670.69;;;6.84;54.75
49949;BME280;35840;45.982;8.890;2023-02-04T03:17:52;98648.72;;;6.80;55.05
49949;BME280;35840;45.982;8.890;2023-02-04T03:20:27;98660.50;;;6.62;55.83
49949;BME280;35840;45.982;8.890;2023-02-04T03:22:57;98667.03;;;6.47;56.22
49949;BME280;35840;45.982;8.890;2023-02-04T03:25:24;98662.81;;;6.46;56.31
49949;BME280;35840;45.982;8.890;2023-02-04T03:27:56;98651.72;;;6.47;56.35
49949;BME280;35840;45.982;8.890;2023-02-04T03:30:25;98658.22;;;6.32;56.78
49949;BME280;35840;45.982;8.890;2023-02-04T03:32:52;98651.47;;;6.31;57.10
49949;BME280;35840;45.982;8.890;2023-02-04T03:35:19;98643.69;;;6.12;57.58
49949;BME280;35840;45.982;8.890;2023-02-04T03:37:46;98657.69;;;6.01;58.11
49949;BME280;35840;45.982;8.890;2023-02-04T03:40:13;98640.81;;;5.97;58.25
49949;BME280;35840;45.982;8.890;2023-02-04T03:42:40;98653.28;;;6.05;58.45
49949;BME280;35840;45.982;8.890;2023-02-04T03:45:07;98668.00;;;5.98;58.80
49949;BME280;35840;45.982;8.890;2023-02-04T03:47:34;98653.28;;;6.05;58.78
49949;BME280;35840;45.982;8.890;2023-02-04T03:50:01;98663.19;;;5.89;58.85
49949;BME280;35840;45.982;8.890;2023-02-04T03:52:28;98662.44;;;5.87;59.13
49949;BME280;35840;45.982;8.890;2023-02-04T03:54:54;98658.38;;;5.81;59.28
49949;BME280;35840;45.982;8.890;2023-02-04T03:57:21;98653.03;;;5.88;59.98
49949;BME280;35840;45.982;8.890;2023-02-04T03:59:48;98657.47;;;5.82;59.91
49949;BME280;35840;45.982;8.890;2023-02-04T04:02:14;98645.88;;;5.74;60.00
49949;BME280;35840;45.982;8.890;2023-02-04T04:04:41;98658.88;;;5.67;59.42
49949;BME280;35840;45.982;8.890;2023-02-04T04:07:08;98644.94;;;5.52;61.18
49949;BME280;35840;45.982;8.890;2023-02-04T04:09:34;98644.28;;;5.47;61.07
49949;BME280;35840;45.982;8.890;2023-02-04T04:12:01;98645.00;;;5.51;61.32
49949;BME280;35840;45.982;8.890;2023-02-04T04:14:29;98641.09;;;5.41;61.38
49949;BME280;35840;45.982;8.890;2023-02-04T04:16:56;98629.56;;;5.30;61.25
49949;BME280;35840;45.982;8.890;2023-02-04T04:19:23;98630.28;;;5.34;61.34
49949;BME280;35840;45.982;8.890;2023-02-04T04:21:50;98640.88;;;5.47;61.06
49949;BME280;35840;45.982;8.890;2023-02-04T04:24:17;98636.47;;;5.52;61.06
49949;BME280;35840;45.982;8.890;2023-02-04T04:26:44;98636.41;;;5.54;60.97
49949;BME280;35840;45.982;8.890;2023-02-04T04:29:10;98639.69;;;5.57;61.54
49949;BME280;35840;45.982;8.890;2023-02-04T04:31:37;98643.94;;;5.57;61.00
49949;BME280;35840;45.982;8.890;2023-02-04T04:34:04;98618.22;;;5.39;61.21
49949;BME280;35840;45.982;8.890;2023-02-04T04:36:31;98645.88;;;5.50;61.63
49949;BME280;35840;45.982;8.890;2023-02-04T04:38:57;98647.13;;;5.63;61.78
49949;BME280;35840;45.982;8.890;2023-02-04T04:41:25;98650.72;;;5.58;61.36
49949;BME280;35840;45.982;8.890;2023-02-04T04:43:52;98643.38;;;5.48;62.46
49949;BME280;35840;45.982;8.890;2023-02-04T04:46:18;98642.66;;;5.45;62.55
49949;BME280;35840;45.982;8.890;2023-02-04T04:48:45;98642.72;;;5.43;62.47
49949;BME280;35840;45.982;8.890;2023-02-04T04:51:12;98625.06;;;5.37;62.72
49949;BME280;35840;45.982;8.890;2023-02-04T04:53:38;98634.22;;;5.43;62.27
49949;BME280;35840;45.982;8.890;2023-02-04T04:56:05;98630.78;;;5.44;62.41
49949;BME280;35840;45.982;8.890;2023-02-04T04:58:32;98644.47;;;5.41;61.88
49949;BME280;35840;45.982;8.890;2023-02-04T05:00:59;98642.38;;;5.29;63.34
49949;BME280;35840;45.982;8.890;2023-02-04T05:03:25;98645.06;;;5.24;63.54
49949;BME280;35840;45.982;8.890;2023-02-04T05:05:52;98652.66;;;5.26;63.04
49949;BME280;35840;45.982;8.890;2023-02-04T05:08:19;98652.69;;;5.24;63.50
49949;BME280;35840;45.982;8.890;2023-02-04T05:10:46;98644.91;;;5.29;63.91
49949;BME280;35840;45.982;8.890;2023-02-04T05:13:13;98651.88;;;5.24;63.76
49949;BME280;35840;45.982;8.890;2023-02-04T05:15:39;98652.81;;;5.21;63.76
49949;BME280;35840;45.982;8.890;2023-02-04T05:18:06;98635.47;;;5.06;62.98
49949;BME280;35840;45.982;8.890;2023-02-04T05:20:33;98635.59;;;5.03;64.19
49949;BME280;35840;45.982;8.890;2023-02-04T05:23:00;98652.06;;;4.92;64.33
49949;BME280;35840;45.982;8.890;2023-02-04T05:25:29;98633.81;;;4.79;65.56
49949;BME280;35840;45.982;8.890;2023-02-04T05:27:56;98652.50;;;4.78;65.41
49949;BME280;35840;45.982;8.890;2023-02-04T05:30:23;98648.94;;;4.84;66.08
49949;BME280;35840;45.982;8.890;2023-02-04T05:32:49;98661.41;;;4.92;64.70
49949;BME280;35840;45.982;8.890;2023-02-04T05:35:16;98644.16;;;5.00;65.45
49949;BME280;35840;45.982;8.890;2023-02-04T05:37:43;98666.38;;;4.96;64.83
49949;BME280;35840;45.982;8.890;2023-02-04T05:40:10;98669.50;;;5.05;65.21
49949;BME280;35840;45.982;8.890;2023-02-04T05:42:37;98664.44;;;5.03;65.30
49949;BME280;35840;45.982;8.890;2023-02-04T05:45:04;98669.59;;;5.02;65.14
49949;BME280;35840;45.982;8.890;2023-02-04T05:47:31;98670.19;;;5.10;64.98
49949;BME280;35840;45.982;8.890;2023-02-04T05:49:57;98671.03;;;5.10;64.63
49949;BME280;35840;45.982;8.890;2023-02-04T05:52:24;98665.88;;;5.12;64.84
49949;BME280;35840;45.982;8.890;2023-02-04T05:54:51;98675.44;;;5.05;65.56
49949;BME280;35840;45.982;8.890;2023-02-04T05:57:17;98692.25;;;5.11;64.95
49949;BME280;35840;45.982;8.890;2023-02-04T05:59:44;98677.06;;;5.08;65.39
49949;BME280;35840;45.982;8.890;2023-02-04T06:02:11;98682.19;;;5.06;65.22
49949;BME280;35840;45.982;8.890;2023-02-04T06:04:37;98688.13;;;5.07;65.60
49949;BME280;35840;45.982;8.890;2023-02-04T06:07:04;98685.69;;;5.04;65.46
49949;BME280;35840;45.982;8.890;2023-02-04T06:09:31;98681.25;;;5.09;65.03
49949;BME280;35840;45.982;8.890;2023-02-04T06:11:57;98683.84;;;5.07;65.30
49949;BME280;35840;45.982;8.890;2023-02-04T06:14:24;98696.69;;;5.04;65.04
49949;BME280;35840;45.982;8.890;2023-02-04T06:16:51;98679.88;;;4.72;65.45
49949;BME280;35840;45.982;8.890;2023-02-04T06:19:18;98696.41;;;4.87;65.36
49949;BME280;35840;45.982;8.890;2023-02-04T06:21:44;98698.75;;;4.93;65.31
49949;BME280;35840;45.982;8.890;2023-02-04T06:24:11;98690.63;;;4.81;66.08
49949;BME280;35840;45.982;8.890;2023-02-04T06:26:38;98673.50;;;4.87;65.13
49949;BME280;35840;45.982;8.890;2023-02-04T06:29:05;98706.22;;;4.99;65.43
49949;BME280;35840;45.982;8.890;2023-02-04T06:31:31;98710.34;;;5.02;65.16
49949;BME280;35840;45.982;8.890;2023-02-04T06:33:58;98700.81;;;5.08;65.39
49949;BME280;35840;45.982;8.890;2023-02-04T06:36:25;98711.50;;;5.20;64.76
49949;BME280;35840;45.982;8.890;2023-02-04T06:38:52;98690.78;;;5.04;65.59
49949;BME280;35840;45.982;8.890;2023-02-04T06:41:18;98717.22;;;5.26;65.28
49949;BME280;35840;45.982;8.890;2023-02-04T06:43:45;98722.56;;;5.18;64.84
49949;BME280;35840;45.982;8.890;2023-02-04T06:46:13;98723.50;;;5.16;64.91
49949;BME280;35840;45.982;8.890;2023-02-04T06:48:39;98718.69;;;5.07;64.74
49949;BME280;35840;45.982;8.890;2023-02-04T06:51:06;98726.94;;;5.15;65.16
49949;BME280;35840;45.982;8.890;2023-02-04T06:53:33;98727.72;;;5.17;65.53
49949;BME280;35840;45.982;8.890;2023-02-04T06:55:59;98728.25;;;5.00;67.86
49949;BME280;35840;45.982;8.890;2023-02-04T06:58:26;98712.72;;;5.08;66.13
49949;BME280;35840;45.982;8.890;2023-02-04T07:00:53;98706.66;;;5.12;66.27
49949;BME280;35840;45.982;8.890;2023-02-04T07:03:19;98727.13;;;5.09;66.22
49949;BME280;35840;45.982;8.890;2023-02-04T07:05:46;98712.09;;;5.01;66.64
49949;BME280;35840;45.982;8.890;2023-02-04T07:08:13;98681.84;;;4.90;66.28
49949;BME280;35840;45.982;8.890;2023-02-04T07:10:39;98718.66;;;5.08;66.77
49949;BME280;35840;45.982;8.890;2023-02-04T07:13:06;98710.91;;;5.11;66.72
49949;BME280;35840;45.982;8.890;2023-02-04T07:15:33;98713.25;;;5.17;66.67
49949;BME280;35840;45.982;8.890;2023-02-04T07:17:59;98714.63;;;5.28;66.73
49949;BME280;35840;45.982;8.890;2023-02-04T07:20:26;98715.50;;;5.27;66.85
49949;BME280;35840;45.982;8.890;2023-02-04T07:22:53;98729.16;;;5.24;66.94
49949;BME280;35840;45.982;8.890;2023-02-04T07:25:19;98735.47;;;5.14;67.23
49949;BME280;35840;45.982;8.890;2023-02-04T07:27:46;98739.19;;;5.04;67.39
49949;BME280;35840;45.982;8.890;2023-02-04T07:30:13;98739.97;;;5.06;67.40
49949;BME280;35840;45.982;8.890;2023-02-04T07:32:40;98706.88;;;5.04;67.64
49949;BME280;35840;45.982;8.890;2023-02-04T07:35:07;98742.34;;;5.12;66.82
49949;BME280;35840;45.982;8.890;2023-02-04T07:37:33;98729.78;;;5.06;68.26
49949;BME280;35840;45.982;8.890;2023-02-04T07:40:00;98728.19;;;5.02;68.07
49949;BME280;35840;45.982;8.890;2023-02-04T07:42:27;98737.63;;;4.99;68.78
49949;BME280;35840;45.982;8.890;2023-02-04T07:45:03;98731.66;;;5.00;68.61
49949;BME280;35840;45.982;8.890;2023-02-04T07:47:30;98729.06;;;5.02;69.04
49949;BME280;35840;45.982;8.890;2023-02-04T07:49:56;98741.44;;;5.13;69.28
49949;BME280;35840;45.982;8.890;2023-02-04T07:52:23;98736.22;;;5.17;68.74
49949;BME280;35840;45.982;8.890;2023-02-04T07:54:50;98723.34;;;5.21;68.34
49949;BME280;35840;45.982;8.890;2023-02-04T07:57:18;98726.00;;;5.43;67.45
49949;BME280;35840;45.982;8.890;2023-02-04T07:59:46;98738.06;;;5.64;67.26
49949;BME280;35840;45.982;8.890;2023-02-04T08:02:12;98747.16;;;5.72;67.24
49949;BME280;35840;45.982;8.890;2023-02-04T08:04:39;98747.00;;;5.76;66.94
49949;BME280;35840;45.982;8.890;2023-02-04T08:07:06;98751.22;;;5.77;67.34
49949;BME280;35840;45.982;8.890;2023-02-04T08:09:33;98749.31;;;5.82;67.06
49949;BME280;35840;45.982;8.890;2023-02-04T08:12:00;98757.50;;;5.92;67.72
49949;BME280;35840;45.982;8.890;2023-02-04T08:14:26;98761.56;;;5.98;67.61
49949;BME280;35840;45.982;8.890;2023-02-04T08:16:53;98761.66;;;6.20;67.28
49949;BME280;35840;45.982;8.890;2023-02-04T08:19:20;98749.56;;;6.25;67.38
49949;BME280;35840;45.982;8.890;2023-02-04T08:21:47;98730.59;;;6.32;67.14
49949;BME280;35840;45.982;8.890;2023-02-04T08:24:15;98764.53;;;6.58;67.14
49949;BME280;35840;45.982;8.890;2023-02-04T08:26:43;98768.38;;;6.68;66.94
49949;BME280;35840;45.982;8.890;2023-02-04T08:29:10;98762.81;;;6.81;67.83
49949;BME280;35840;45.982;8.890;2023-02-04T08:31:37;98778.38;;;6.75;67.64
49949;BME280;35840;45.982;8.890;2023-02-04T08:34:05;98774.00;;;7.00;69.24
49949;BME280;35840;45.982;8.890;2023-02-04T08:36:32;98763.72;;;7.02;69.01
49949;BME280;35840;45.982;8.890;2023-02-04T08:38:59;98782.88;;;7.34;68.88
49949;BME280;35840;45.982;8.890;2023-02-04T08:41:25;98782.13;;;7.53;68.35
49949;BME280;35840;45.982;8.890;2023-02-04T08:43:52;98781.53;;;7.67;68.07
49949;BME280;35840;45.982;8.890;2023-02-04T08:46:19;98789.09;;;7.70;67.30
49949;BME280;35840;45.982;8.890;2023-02-04T08:48:46;98769.19;;;7.76;67.55
49949;BME280;35840;45.982;8.890;2023-02-04T08:51:13;98797.38;;;8.16;67.16
49949;BME280;35840;45.982;8.890;2023-02-04T08:53:40;98784.31;;;8.41;68.33
49949;BME280;35840;45.982;8.890;2023-02-04T08:56:07;98786.88;;;8.41;67.20
49949;BME280;35840;45.982;8.890;2023-02-04T08:58:34;98793.69;;;8.42;67.57
49949;BME280;35840;45.982;8.890;2023-02-04T09:01:01;98796.56;;;8.35;67.39
49949;BME280;35840;45.982;8.890;2023-02-04T09:03:28;98782.72;;;8.39;66.66
49949;BME280;35840;45.982;8.890;2023-02-04T09:05:55;98781.25;;;8.54;66.81
49949;BME280;35840;45.982;8.890;2023-02-04T09:08:21;98786.09;;;8.60;65.96
49949;BME280;35840;45.982;8.890;2023-02-04T09:10:48;98789.53;;;8.78;66.21
49949;BME280;35840;45.982;8.890;2023-02-04T09:13:15;98785.38;;;8.94;64.98
49949;BME280;35840;45.982;8.890;2023-02-04T09:15:42;98795.19;;;9.21;64.20
49949;BME280;35840;45.982;8.890;2023-02-04T09:18:08;98795.25;;;9.39;63.86
49949;BME280;35840;45.982;8.890;2023-02-04T09:20:48;98806.31;;;9.57;62.30
49949;BME280;35840;45.982;8.890;2023-02-04T09:23:15;98802.09;;;9.73;62.40
49949;BME280;35840;45.982;8.890;2023-02-04T09:25:43;98800.31;;;9.75;61.62
49949;BME280;35840;45.982;8.890;2023-02-04T09:28:11;98796.53;;;9.82;61.72
49949;BME280;35840;45.982;8.890;2023-02-04T09:30:40;98810.28;;;10.15;60.55
49949;BME280;35840;45.982;8.890;2023-02-04T09:33:08;98811.84;;;10.35;56.17
49949;BME280;35840;45.982;8.890;2023-02-04T09:35:35;98810.56;;;10.60;56.52
49949;BME280;35840;45.982;8.890;2023-02-04T09:38:02;98805.16;;;10.64;57.21
49949;BME280;35840;45.982;8.890;2023-02-04T09:40:32;98813.88;;;10.78;58.65
49949;BME280;35840;45.982;8.890;2023-02-04T09:43:03;98815.84;;;10.89;54.48
49949;BME280;35840;45.982;8.890;2023-02-04T09:45:34;98832.94;;;11.06;51.68
49949;BME280;35840;45.982;8.890;2023-02-04T09:48:03;98827.28;;;11.31;48.91
49949;BME280;35840;45.982;8.890;2023-02-04T09:50:31;98843.94;;;11.56;47.91
49949;BME280;35840;45.982;8.890;2023-02-04T09:53:04;98845.16;;;11.64;47.53
49949;BME280;35840;45.982;8.890;2023-02-04T09:55:37;98848.25;;;11.85;46.64
49949;BME280;35840;45.982;8.890;2023-02-04T09:58:11;98847.50;;;11.83;46.32
49949;BME280;35840;45.982;8.890;2023-02-04T10:00:39;98853.81;;;11.94;44.69
49949;BME280;35840;45.982;8.890;2023-02-04T10:03:13;98849.88;;;12.17;44.59
49949;BME280;35840;45.982;8.890;2023-02-04T10:05:40;98857.19;;;12.39;43.04
49949;BME280;35840;45.982;8.890;2023-02-04T10:08:13;98855.50;;;12.52;43.11
49949;BME280;35840;45.982;8.890;2023-02-04T10:10:40;98850.25;;;12.54;42.92
49949;BME280;35840;45.982;8.890;2023-02-04T10:13:15;98853.31;;;12.61;41.61
49949;BME280;35840;45.982;8.890;2023-02-04T10:15:44;98860.47;;;12.70;41.76
49949;BME280;35840;45.982;8.890;2023-02-04T10:18:22;98850.91;;;12.72;41.89
49949;BME280;35840;45.982;8.890;2023-02-04T10:21:16;98859.00;;;12.80;41.11
49949;BME280;35840;45.982;8.890;2023-02-04T10:23:41;98866.72;;;12.95;40.80
49949;BME280;35840;45.982;8.890;2023-02-04T10:26:10;98864.19;;;13.07;39.72
49949;BME280;35840;45.982;8.890;2023-02-04T10:28:38;98866.66;;;13.09;39.36
49949;BME280;35840;45.982;8.890;2023-02-04T10:31:06;98860.09;;;13.18;39.75
49949;BME280;35840;45.982;8.890;2023-02-04T10:34:11;98856.16;;;13.12;40.67
49949;BME280;35840;45.982;8.890;2023-02-04T10:36:40;98862.13;;;13.27;38.59
49949;BME280;35840;45.982;8.890;2023-02-04T10:39:16;98860.00;;;13.47;38.92
49949;BME280;35840;45.982;8.890;2023-02-04T10:41:54;98865.97;;;13.62;38.76
49949;BME280;35840;45.982;8.890;2023-02-04T10:44:25;98863.59;;;13.58;38.24
49949;BME280;35840;45.982;8.890;2023-02-04T10:47:19;98872.44;;;13.54;38.96
49949;BME280;35840;45.982;8.890;2023-02-04T10:52:20;98860.72;;;13.76;37.98
49949;BME280;35840;45.982;8.890;2023-02-04T10:54:47;98869.50;;;13.73;38.18
49949;BME280;35840;45.982;8.890;2023-02-04T10:57:23;98871.50;;;13.83;37.27
49949;BME280;35840;45.982;8.890;2023-02-04T10:59:58;98867.88;;;13.85;37.59
49949;BME280;35840;45.982;8.890;2023-02-04T11:02:58;98870.16;;;13.90;37.48
49949;BME280;35840;45.982;8.890;2023-02-04T11:05:32;98869.44;;;14.01;37.13
49949;BME280;35840;45.982;8.890;2023-02-04T11:08:00;98864.78;;;14.06;36.90
49949;BME280;35840;45.982;8.890;2023-02-04T11:10:29;98875.44;;;14.01;37.00
49949;BME280;35840;45.982;8.890;2023-02-04T11:20:51;98862.53;;;14.27;34.83
49949;BME280;35840;45.982;8.890;2023-02-04T11:33:48;98869.97;;;14.32;35.67
49949;BME280;35840;45.982;8.890;2023-02-04T11:36:16;98872.75;;;14.28;35.93
49949;BME280;35840;45.982;8.890;2023-02-04T11:38:48;98880.22;;;14.33;36.22
49949;BME280;35840;45.982;8.890;2023-02-04T11:41:28;98880.22;;;14.33;36.03
49949;BME280;35840;45.982;8.890;2023-02-04T11:43:56;98891.72;;;14.29;35.52
49949;BME280;35840;45.982;8.890;2023-02-04T11:46:25;98886.00;;;14.37;35.67
49949;BME280;35840;45.982;8.890;2023-02-04T11:48:55;98887.47;;;14.28;35.98
49949;BME280;35840;45.982;8.890;2023-02-04T11:51:28;98886.94;;;14.23;34.60
49949;BME280;35840;45.982;8.890;2023-02-04T11:53:56;98886.81;;;14.24;35.73
49949;BME280;35840;45.982;8.890;2023-02-04T11:56:27;98895.75;;;14.33;35.07
49949;BME280;35840;45.982;8.890;2023-02-04T11:58:55;98885.28;;;14.35;34.84
49949;BME280;35840;45.982;8.890;2023-02-04T12:01:28;98890.03;;;14.41;34.43
49949;BME280;35840;45.982;8.890;2023-02-04T12:04:00;98887.47;;;14.41;35.03
49949;BME280;35840;45.982;8.890;2023-02-04T12:06:33;98875.78;;;14.35;35.60
49949;BME280;35840;45.982;8.890;2023-02-04T12:14:19;98877.09;;;14.54;35.38
49949;BME280;35840;45.982;8.890;2023-02-04T12:16:50;98879.56;;;14.55;35.42
49949;BME280;35840;45.982;8.890;2023-02-04T12:19:17;98873.28;;;14.46;36.40
49949;BME280;35840;45.982;8.890;2023-02-04T12:21:44;98886.94;;;14.36;36.73
49949;BME280;35840;45.982;8.890;2023-02-04T12:24:11;98869.03;;;14.33;36.18
49949;BME280;35840;45.982;8.890;2023-02-04T12:26:38;98879.59;;;14.29;35.96
49949;BME280;35840;45.982;8.890;2023-02-04T12:29:05;98873.50;;;14.31;36.51
49949;BME280;35840;45.982;8.890;2023-02-04T12:31:32;98878.34;;;14.35;36.24
49949;BME280;35840;45.982;8.890;2023-02-04T12:33:59;98871.13;;;14.27;36.99
49949;BME280;35840;45.982;8.890;2023-02-04T12:36:26;98873.41;;;14.19;36.41
49949;BME280;35840;45.982;8.890;2023-02-04T12:38:56;98874.22;;;14.20;35.39
49949;BME280;35840;45.982;8.890;2023-02-04T12:41:25;98854.53;;;14.30;35.59
49949;BME280;35840;45.982;8.890;2023-02-04T12:43:52;98867.38;;;14.32;35.05
49949;BME280;35840;45.982;8.890;2023-02-04T12:46:21;98866.03;;;14.52;35.23
49949;BME280;35840;45.982;8.890;2023-02-04T12:48:47;98871.09;;;14.53;35.09
49949;BME280;35840;45.982;8.890;2023-02-04T12:51:14;98866.41;;;14.58;35.35
49949;BME280;35840;45.982;8.890;2023-02-04T12:53:41;98871.22;;;14.52;35.18
49949;BME280;35840;45.982;8.890;2023-02-04T12:56:07;98870.03;;;14.56;34.87
49949;BME280;35840;45.982;8.890;2023-02-04T12:58:34;98875.53;;;14.51;35.28
49949;BME280;35840;45.982;8.890;2023-02-04T13:01:01;98878.53;;;14.58;34.06
49949;BME280;35840;45.982;8.890;2023-02-04T13:03:30;98876.19;;;14.68;34.13
49949;BME280;35840;45.982;8.890;2023-02-04T13:05:57;98877.09;;;14.67;34.27
49949;BME280;35840;45.982;8.890;2023-02-04T13:08:24;98850.31;;;14.55;34.75
49949;BME280;35840;45.982;8.890;2023-02-04T13:10:50;98876.06;;;14.69;34.67
49949;BME280;35840;45.982;8.890;2023-02-04T13:13:18;98861.38;;;14.44;34.46
49949;BME280;35840;45.982;8.890;2023-02-04T13:15:46;98876.06;;;14.69;34.17
49949;BME280;35840;45.982;8.890;2023-02-04T13:18:13;98878.44;;;14.72;35.01
49949;BME280;35840;45.982;8.890;2023-02-04T13:20:43;98877.09;;;14.79;33.62
49949;BME280;35840;45.982;8.890;2023-02-04T13:23:11;98873.53;;;14.93;34.42
49949;BME280;35840;45.982;8.890;2023-02-04T13:25:39;98875.09;;;14.96;33.74
49949;BME280;35840;45.982;8.890;2023-02-04T13:28:06;98869.50;;;14.89;33.48
49949;BME280;35840;45.982;8.890;2023-02-04T13:30:33;98870.31;;;14.90;34.01
49949;BME280;35840;45.982;8.890;2023-02-04T13:33:00;98870.31;;;14.90;34.18
49949;BME280;35840;45.982;8.890;2023-02-04T13:35:26;98862.66;;;14.88;34.42
49949;BME280;35840;45.982;8.890;2023-02-04T13:37:53;98861.03;;;14.87;34.69
49949;BME280;35840;45.982;8.890;2023-02-04T13:40:22;98863.22;;;14.80;34.26
49949;BME280;35840;45.982;8.890;2023-02-04T13:42:48;98857.31;;;14.78;34.80